createdAt,value
2022-08-30T00:00:59.864Z,3.1
2022-08-30T00:02:08.430Z,3.2
2022-08-30T00:03:16.960Z,3.2
2022-08-30T00:04:25.029Z,3.2
2022-08-30T00:05:33.565Z,3.5
2022-08-30T00:06:41.893Z,3.5
2022-08-30T00:07:50.217Z,3.5
2022-08-30T00:08:58.745Z,3.7
2022-08-30T00:10:07.056Z,3.7
2022-08-30T00:11:15.377Z,3.7
2022-08-30T00:12:23.920Z,3.6
2022-08-30T00:13:32.238Z,3.6
2022-08-30T00:14:40.575Z,3.6
2022-08-30T00:15:49.114Z,3.1
2022-08-30T00:16:57.412Z,3.1
2022-08-30T00:18:05.729Z,3.1
2022-08-30T00:19:14.262Z,3.7
2022-08-30T00:20:22.584Z,3.7
2022-08-30T00:21:30.935Z,3.7
2022-08-30T00:22:39.483Z,3
2022-08-30T00:23:47.822Z,3
2022-08-30T00:24:56.134Z,3
2022-08-30T00:26:04.659Z,3.2
2022-08-30T00:27:12.990Z,3.2
2022-08-30T00:28:21.308Z,3.2
2022-08-30T00:29:29.842Z,3.1
2022-08-30T00:30:38.151Z,3.1
2022-08-30T00:31:46.471Z,3.1
2022-08-30T00:32:55.004Z,3.5
2022-08-30T00:34:03.327Z,3.5
2022-08-30T00:35:11.658Z,3.5
2022-08-30T00:36:20.200Z,3.3
2022-08-30T00:37:28.530Z,3.3
2022-08-30T00:38:36.863Z,3.3
2022-08-30T00:39:45.388Z,3.4
2022-08-30T00:40:53.716Z,3.4
2022-08-30T00:42:02.046Z,3.4
2022-08-30T00:43:10.571Z,3.2
2022-08-30T00:44:18.894Z,3.2
2022-08-30T00:45:27.216Z,3.2
2022-08-30T00:46:35.844Z,3.7
2022-08-30T00:47:44.089Z,3.7
2022-08-30T00:48:52.425Z,3.7
2022-08-30T00:50:00.962Z,3.4
2022-08-30T00:51:09.293Z,3.4
2022-08-30T00:52:17.608Z,3.4
2022-08-30T00:53:26.157Z,3.7
2022-08-30T00:54:34.484Z,3.7
2022-08-30T00:55:44.226Z,3.7
2022-08-30T00:56:51.328Z,3.5
2022-08-30T00:57:59.655Z,3.5
2022-08-30T00:59:07.978Z,3.5
2022-08-30T01:00:16.510Z,3
2022-08-30T01:01:24.891Z,3
2022-08-30T01:02:33.201Z,3
2022-08-30T01:03:41.716Z,3.4
2022-08-30T01:04:50.073Z,3.4
2022-08-30T01:05:58.389Z,3.4
2022-08-30T01:07:06.926Z,3.9
2022-08-30T01:08:15.257Z,3.9
2022-08-30T01:09:23.568Z,3.9
2022-08-30T01:10:32.108Z,3.8
2022-08-30T01:11:40.440Z,3.8
2022-08-30T01:12:48.771Z,3.8
2022-08-30T01:13:57.324Z,3.9
2022-08-30T01:15:05.649Z,3.9
2022-08-30T01:16:14.034Z,3.9
2022-08-30T01:17:22.534Z,4
2022-08-30T01:18:30.831Z,4
2022-08-30T01:19:39.155Z,4
2022-08-30T01:20:47.695Z,3.6
2022-08-30T01:21:56.015Z,3.6
2022-08-30T01:23:04.337Z,3.6
2022-08-30T01:24:12.871Z,3.3
2022-08-30T01:25:21.215Z,3.3
2022-08-30T01:26:29.526Z,3.3
2022-08-30T01:27:38.057Z,3.8
2022-08-30T01:28:46.385Z,3.8
2022-08-30T01:29:54.728Z,3.8
2022-08-30T01:31:03.304Z,3.3
2022-08-30T01:32:11.592Z,3.3
2022-08-30T01:33:19.899Z,3.3
2022-08-30T01:34:28.431Z,3.4
2022-08-30T01:35:36.754Z,3.4
2022-08-30T01:36:45.327Z,3.4
2022-08-30T01:37:53.620Z,3.4
2022-08-30T01:39:01.944Z,3.4
2022-08-30T01:40:10.303Z,3.4
2022-08-30T01:41:18.809Z,3.6
2022-08-30T01:42:27.152Z,3.6
2022-08-30T01:43:35.467Z,3.6
2022-08-30T01:44:44.010Z,3.2
2022-08-30T01:45:52.399Z,3.2
2022-08-30T01:47:00.653Z,3.2
2022-08-30T01:48:09.182Z,3.5
2022-08-30T01:49:17.504Z,3.5
2022-08-30T01:50:25.850Z,3.5
2022-08-30T01:51:34.381Z,3.3
2022-08-30T01:52:42.709Z,3.3
2022-08-30T01:53:51.029Z,3.3
2022-08-30T01:54:59.560Z,3.1
2022-08-30T01:56:07.872Z,3.1
2022-08-30T01:57:16.206Z,3.1
2022-08-30T01:58:24.743Z,3.3
2022-08-30T01:59:33.085Z,3.3
2022-08-30T02:00:41.424Z,3.3
2022-08-30T02:01:50.005Z,3.3
2022-08-30T02:02:58.260Z,3.3
2022-08-30T02:04:06.661Z,3.3
2022-08-30T02:05:15.127Z,3.4
2022-08-30T02:06:23.459Z,3.4
2022-08-30T02:07:31.790Z,3.4
2022-08-30T02:08:40.321Z,3.3
2022-08-30T02:09:48.639Z,3.3
2022-08-30T02:10:56.973Z,3.3
2022-08-30T02:12:05.502Z,3.7
2022-08-30T02:13:13.823Z,3.7
2022-08-30T02:14:22.158Z,3.7
2022-08-30T02:15:30.699Z,3.5
2022-08-30T02:16:39.075Z,3.5
2022-08-30T02:17:47.354Z,3.5
2022-08-30T02:18:55.883Z,3.4
2022-08-30T02:20:04.238Z,3.4
2022-08-30T02:21:12.574Z,3.4
2022-08-30T02:22:21.108Z,3.5
2022-08-30T02:23:29.414Z,3.5
2022-08-30T02:24:37.765Z,3.5
2022-08-30T02:25:46.296Z,3.5
2022-08-30T02:26:54.614Z,3.5
2022-08-30T02:28:02.925Z,3.5
2022-08-30T02:29:11.460Z,3.7
2022-08-30T02:30:19.816Z,3.7
2022-08-30T02:31:28.128Z,3.7
2022-08-30T02:32:36.671Z,3.4
2022-08-30T02:33:44.999Z,3.4
2022-08-30T02:34:53.337Z,3.4
2022-08-30T02:36:01.873Z,3.7
2022-08-30T02:37:10.205Z,3.7
2022-08-30T02:38:19.921Z,3.7
2022-08-30T02:39:27.060Z,3.7
2022-08-30T02:40:35.444Z,3.7
2022-08-30T02:41:43.720Z,3.7
2022-08-30T02:42:52.261Z,3.6
2022-08-30T02:44:00.610Z,3.6
2022-08-30T02:45:08.939Z,3.6
2022-08-30T02:46:17.519Z,3.8
2022-08-30T02:47:25.803Z,3.8
2022-08-30T02:48:34.132Z,3.8
2022-08-30T02:49:42.693Z,3.9
2022-08-30T02:50:51.008Z,3.9
2022-08-30T02:51:59.330Z,3.9
2022-08-30T02:53:07.867Z,4
2022-08-30T02:54:16.199Z,4
2022-08-30T02:55:24.527Z,4
2022-08-30T02:56:33.067Z,3.8
2022-08-30T02:57:41.406Z,3.8
2022-08-30T02:58:49.740Z,3.8
2022-08-30T02:59:58.266Z,3.8
2022-08-30T03:01:06.660Z,3.8
2022-08-30T03:02:14.940Z,3.8
2022-08-30T03:03:23.504Z,4.1
2022-08-30T03:04:31.796Z,4.1
2022-08-30T03:05:40.130Z,4.1
2022-08-30T03:06:48.672Z,4.2
2022-08-30T03:07:56.991Z,4.2
2022-08-30T03:09:05.344Z,4.2
2022-08-30T03:10:13.995Z,3.9
2022-08-30T03:11:22.209Z,3.9
2022-08-30T03:12:30.535Z,3.9
2022-08-30T03:13:39.074Z,3.5
2022-08-30T03:14:47.403Z,3.5
2022-08-30T03:15:55.721Z,3.5
2022-08-30T03:17:04.258Z,3.7
2022-08-30T03:18:12.594Z,3.7
2022-08-30T03:19:20.918Z,3.7
2022-08-30T03:20:29.443Z,3.7
2022-08-30T03:21:37.780Z,3.7
2022-08-30T03:22:46.103Z,3.7
2022-08-30T03:23:54.658Z,4
2022-08-30T03:25:02.989Z,4
2022-08-30T03:26:11.314Z,4
2022-08-30T03:27:19.860Z,3.7
2022-08-30T03:28:28.181Z,3.7
2022-08-30T03:29:36.495Z,3.7
2022-08-30T03:30:45.033Z,3.8
2022-08-30T03:31:53.922Z,3.8
2022-08-30T03:33:01.687Z,3.8
2022-08-30T03:34:10.222Z,4
2022-08-30T03:35:18.544Z,4
2022-08-30T03:36:26.872Z,4
2022-08-30T03:37:35.441Z,3.9
2022-08-30T03:38:43.772Z,3.9
2022-08-30T03:39:52.106Z,3.9
2022-08-30T03:41:00.647Z,4
2022-08-30T03:42:09.004Z,4
2022-08-30T03:43:17.433Z,4
2022-08-30T03:44:25.834Z,4.2
2022-08-30T03:45:34.208Z,4.2
2022-08-30T03:46:42.478Z,4.2
2022-08-30T03:47:51.012Z,3.6
2022-08-30T03:48:59.327Z,3.6
2022-08-30T03:50:07.653Z,3.6
2022-08-30T03:51:16.171Z,3.7
2022-08-30T03:52:24.496Z,3.7
2022-08-30T03:53:32.815Z,3.7
2022-08-30T03:54:41.354Z,4
2022-08-30T03:55:49.669Z,4
2022-08-30T03:56:58.010Z,4
2022-08-30T03:58:06.553Z,3.9
2022-08-30T03:59:14.874Z,3.9
2022-08-30T04:00:23.205Z,3.9
2022-08-30T04:01:31.798Z,4.4
2022-08-30T04:02:40.168Z,4.4
2022-08-30T04:03:48.408Z,4.4
2022-08-30T04:04:56.937Z,4.1
2022-08-30T04:06:05.250Z,4.1
2022-08-30T04:07:13.564Z,4.1
2022-08-30T04:08:22.097Z,4.3
2022-08-30T04:09:30.416Z,4.3
2022-08-30T04:10:38.730Z,4.3
2022-08-30T04:11:47.273Z,4.4
2022-08-30T04:12:55.607Z,4.4
2022-08-30T04:14:03.929Z,4.4
2022-08-30T04:15:12.465Z,4.1
2022-08-30T04:16:20.871Z,4.1
2022-08-30T04:17:29.124Z,4.1
2022-08-30T04:18:37.669Z,4.2
2022-08-30T04:19:45.992Z,4.2
2022-08-30T04:20:54.311Z,4.2
2022-08-30T04:22:02.830Z,4.3
2022-08-30T04:23:11.172Z,4.3
2022-08-30T04:24:19.502Z,4.3
2022-08-30T04:25:28.029Z,4.6
2022-08-30T04:26:36.354Z,4.6
2022-08-30T04:27:44.695Z,4.6
2022-08-30T04:28:53.250Z,4.6
2022-08-30T04:30:01.574Z,4.6
2022-08-30T04:31:11.683Z,4.6
2022-08-30T04:32:18.432Z,4.5
2022-08-30T04:33:26.785Z,4.5
2022-08-30T04:34:35.115Z,4.5
2022-08-30T04:35:43.654Z,4.3
2022-08-30T04:36:51.979Z,4.3
2022-08-30T04:38:00.318Z,4.3
2022-08-30T04:39:08.836Z,4.5
2022-08-30T04:40:17.193Z,4.5
2022-08-30T04:41:25.487Z,4.5
2022-08-30T04:42:34.022Z,3.9
2022-08-30T04:43:42.347Z,3.9
2022-08-30T04:44:50.677Z,3.9
2022-08-30T04:45:59.267Z,4.1
2022-08-30T04:47:07.514Z,4.1
2022-08-30T04:48:15.844Z,4.1
2022-08-30T04:49:24.364Z,4.8
2022-08-30T04:50:32.689Z,4.8
2022-08-30T04:51:41.025Z,4.8
2022-08-30T04:52:49.583Z,4.7
2022-08-30T04:53:57.909Z,4.7
2022-08-30T04:55:06.223Z,4.7
2022-08-30T04:56:14.765Z,4.9
2022-08-30T04:57:23.098Z,4.9
2022-08-30T04:58:31.593Z,4.9
2022-08-30T04:59:40.117Z,4.3
2022-08-30T05:00:48.489Z,4.3
2022-08-30T05:01:56.785Z,4.3
2022-08-30T05:03:05.298Z,4.2
2022-08-30T05:04:13.628Z,4.2
2022-08-30T05:05:21.957Z,4.2
2022-08-30T05:06:30.467Z,4.3
2022-08-30T05:07:38.799Z,4.3
2022-08-30T05:08:47.125Z,4.3
2022-08-30T05:09:55.633Z,4.8
2022-08-30T05:11:03.976Z,4.8
2022-08-30T05:12:12.307Z,4.8
2022-08-30T05:13:20.844Z,4.8
2022-08-30T05:14:29.166Z,4.8
2022-08-30T05:15:37.484Z,4.8
2022-08-30T05:16:46.087Z,4.4
2022-08-30T05:17:54.325Z,4.4
2022-08-30T05:19:02.650Z,4.4
2022-08-30T05:20:11.184Z,4.7
2022-08-30T05:21:19.500Z,4.7
2022-08-30T05:22:27.860Z,4.7
2022-08-30T05:23:36.388Z,4.5
2022-08-30T05:24:44.705Z,4.5
2022-08-30T05:25:53.021Z,4.5
2022-08-30T05:27:01.562Z,4.9
2022-08-30T05:28:09.908Z,4.9
2022-08-30T05:29:18.209Z,4.9
2022-08-30T05:30:26.729Z,5.2
2022-08-30T05:31:35.190Z,5.2
2022-08-30T05:32:43.388Z,5.2
2022-08-30T05:33:51.919Z,4.6
2022-08-30T05:35:00.242Z,4.6
2022-08-30T05:36:08.552Z,4.6
2022-08-30T05:37:17.093Z,4.6
2022-08-30T05:38:25.409Z,4.6
2022-08-30T05:39:33.980Z,4.6
2022-08-30T05:40:42.283Z,4.6
2022-08-30T05:41:50.579Z,4.6
2022-08-30T05:42:58.880Z,4.6
2022-08-30T05:44:07.417Z,5.1
2022-08-30T05:45:15.729Z,5.1
2022-08-30T05:46:24.202Z,5.1
2022-08-30T05:47:32.582Z,4.9
2022-08-30T05:48:40.900Z,4.9
2022-08-30T05:49:49.218Z,4.9
2022-08-30T05:50:57.736Z,6.2
2022-08-30T05:52:06.071Z,6.2
2022-08-30T05:53:14.375Z,6.2
2022-08-30T05:54:22.893Z,5.6
2022-08-30T05:55:31.212Z,5.6
2022-08-30T05:56:39.543Z,5.6
2022-08-30T05:57:48.073Z,6.1
2022-08-30T05:58:56.385Z,6.1
2022-08-30T06:00:04.706Z,6.1
2022-08-30T06:01:13.238Z,5.9
2022-08-30T06:02:21.622Z,5.9
2022-08-30T06:03:29.903Z,5.9
2022-08-30T06:04:38.437Z,5.4
2022-08-30T06:06:55.096Z,5.4
2022-08-30T06:08:03.638Z,4.6
2022-08-30T06:09:11.970Z,4.6
2022-08-30T06:10:20.334Z,4.6
2022-08-30T06:11:28.862Z,3.9
2022-08-30T06:12:37.192Z,3.9
2022-08-30T06:13:45.517Z,3.9
2022-08-30T06:14:54.056Z,4.4
2022-08-30T06:16:02.474Z,4.4
2022-08-30T06:17:10.689Z,4.4
2022-08-30T06:18:19.220Z,3.8
2022-08-30T06:19:27.531Z,3.8
2022-08-30T06:20:35.860Z,3.8
2022-08-30T06:21:44.391Z,3.5
2022-08-30T06:22:52.714Z,3.5
2022-08-30T06:24:01.044Z,3.5
2022-08-30T06:25:09.570Z,3.3
2022-08-30T06:26:17.900Z,3.3
2022-08-30T06:27:26.223Z,3.3
2022-08-30T06:28:34.749Z,3.4
2022-08-30T06:29:43.074Z,3.4
2022-08-30T06:30:51.503Z,3.4
2022-08-30T06:31:59.927Z,3.5
2022-08-30T06:33:08.250Z,3.5
2022-08-30T06:34:16.570Z,3.5
2022-08-30T06:35:25.106Z,3.2
2022-08-30T06:36:33.419Z,3.2
2022-08-30T06:37:41.738Z,3.2
2022-08-30T06:38:50.267Z,3.9
2022-08-30T06:39:58.691Z,3.9
2022-08-30T06:41:06.892Z,3.9
2022-08-30T06:42:15.442Z,4
2022-08-30T06:43:23.771Z,4
2022-08-30T06:44:32.092Z,4
2022-08-30T06:45:40.624Z,3.9
2022-08-30T06:46:49.055Z,3.9
2022-08-30T06:49:05.798Z,4.1
2022-08-30T06:50:14.108Z,4.1
2022-08-30T06:51:22.447Z,4.1
2022-08-30T06:52:30.961Z,3.8
2022-08-30T06:53:39.285Z,3.8
2022-08-30T06:54:47.604Z,3.8
2022-08-30T06:55:56.128Z,3.9
2022-08-30T06:57:04.451Z,3.9
2022-08-30T06:58:12.814Z,3.9
2022-08-30T06:59:21.301Z,4.3
2022-08-30T07:00:29.629Z,4.3
2022-08-30T07:01:38.000Z,4.3
2022-08-30T07:02:46.499Z,4
2022-08-30T07:03:54.800Z,4
2022-08-30T07:05:03.132Z,4
2022-08-30T07:06:11.680Z,3.9
2022-08-30T07:07:19.986Z,3.9
2022-08-30T07:08:28.316Z,3.9
2022-08-30T07:09:36.844Z,3.8
2022-08-30T07:10:45.177Z,3.8
2022-08-30T07:11:53.542Z,3.8
2022-08-30T07:13:02.070Z,3.6
2022-08-30T07:14:10.389Z,3.6
2022-08-30T07:15:18.701Z,3.6
2022-08-30T07:16:27.283Z,3.4
2022-08-30T07:17:35.573Z,3.4
2022-08-30T07:18:43.883Z,3.4
2022-08-30T07:19:52.419Z,3.3
2022-08-30T07:21:00.752Z,3.3
2022-08-30T07:22:09.077Z,3.3
2022-08-30T07:23:17.795Z,3.7
2022-08-30T07:24:25.929Z,3.7
2022-08-30T07:25:34.247Z,3.7
2022-08-30T07:26:42.772Z,3.1
2022-08-30T07:27:51.097Z,3.1
2022-08-30T07:28:59.426Z,3.1
2022-08-30T07:30:07.949Z,3.6
2022-08-30T07:31:16.285Z,3.6
2022-08-30T07:32:24.605Z,3.6
2022-08-30T07:33:33.142Z,3.5
2022-08-30T07:34:41.452Z,3.5
2022-08-30T07:35:49.781Z,3.5
2022-08-30T07:36:58.322Z,3.6
2022-08-30T07:38:06.642Z,3.6
2022-08-30T07:39:14.962Z,3.6
2022-08-30T07:40:23.615Z,3.5
2022-08-30T07:41:31.813Z,3.5
2022-08-30T07:42:40.121Z,3.5
2022-08-30T07:43:48.658Z,3.3
2022-08-30T07:44:57.097Z,3.3
2022-08-30T07:46:05.373Z,3.3
2022-08-30T07:47:13.826Z,3.4
2022-08-30T07:48:22.150Z,3.4
2022-08-30T07:49:30.480Z,3.4
2022-08-30T07:50:39.034Z,3.4
2022-08-30T07:51:47.372Z,3.4
2022-08-30T07:52:55.700Z,3.4
2022-08-30T07:54:04.243Z,3.1
2022-08-30T07:55:12.556Z,3.1
2022-08-30T07:56:20.881Z,3.1
2022-08-30T07:57:29.399Z,2.8
2022-08-30T07:58:38.223Z,2.8
2022-08-30T07:59:46.544Z,2.8
2022-08-30T08:00:55.080Z,3.2
2022-08-30T08:02:03.495Z,3.2
2022-08-30T08:03:11.720Z,3.2
2022-08-30T08:04:20.253Z,3.2
2022-08-30T08:05:28.579Z,3.2
2022-08-30T08:06:36.902Z,3.2
2022-08-30T08:07:45.420Z,3.4
2022-08-30T08:08:53.809Z,3.4
2022-08-30T08:10:02.072Z,3.4
2022-08-30T08:11:10.601Z,3.1
2022-08-30T08:12:18.918Z,3.1
2022-08-30T08:13:28.066Z,3.1
2022-08-30T08:14:35.757Z,3.1
2022-08-30T08:15:44.111Z,3.1
2022-08-30T08:16:52.430Z,3.1
2022-08-30T08:18:00.964Z,3.1
2022-08-30T08:19:09.501Z,3.1
2022-08-30T08:20:17.606Z,3.1
2022-08-30T08:21:26.140Z,3.1
2022-08-30T08:22:38.046Z,3.1
2022-08-30T08:23:42.788Z,3.1
2022-08-30T08:24:51.328Z,3.4
2022-08-30T08:25:59.660Z,3.4
2022-08-30T08:27:07.989Z,3.4
2022-08-30T08:28:16.649Z,2.7
2022-08-30T08:29:24.830Z,2.7
2022-08-30T08:30:33.166Z,2.7
2022-08-30T08:31:41.790Z,2.7
2022-08-30T08:32:50.019Z,2.7
2022-08-30T08:33:58.326Z,2.7
2022-08-30T08:35:06.850Z,3.3
2022-08-30T08:36:15.183Z,3.3
2022-08-30T08:37:23.902Z,3.3
2022-08-30T08:38:32.023Z,3.1
2022-08-30T08:39:40.346Z,3.1
2022-08-30T08:40:48.666Z,3.1
2022-08-30T08:41:57.215Z,2.8
2022-08-30T08:43:05.550Z,2.8
2022-08-30T08:44:13.864Z,2.8
2022-08-30T08:45:22.401Z,2.9
2022-08-30T08:46:30.768Z,2.9
2022-08-30T08:47:39.023Z,2.9
2022-08-30T08:48:59.409Z,3.1
2022-08-30T08:49:55.886Z,3.1
2022-08-30T08:51:04.221Z,3.1
2022-08-30T08:52:12.764Z,2.8
2022-08-30T08:53:44.652Z,2.8
2022-08-30T08:54:29.425Z,2.8
2022-08-30T08:55:38.000Z,3.3
2022-08-30T08:56:46.280Z,3.3
2022-08-30T08:57:54.604Z,3.3
2022-08-30T08:59:03.128Z,2.9
2022-08-30T09:00:11.465Z,2.9
2022-08-30T09:01:19.842Z,2.9
2022-08-30T09:02:28.308Z,2.9
2022-08-30T09:03:36.630Z,2.9
2022-08-30T09:04:44.992Z,2.9
2022-08-30T09:05:53.484Z,2.7
2022-08-30T09:07:01.800Z,2.7
2022-08-30T09:08:10.317Z,2.7
2022-08-30T09:09:18.665Z,2.8
2022-08-30T09:10:40.773Z,2.8
2022-08-30T09:11:35.322Z,2.8
2022-08-30T09:12:43.844Z,2.8
2022-08-30T09:13:52.163Z,2.8
2022-08-30T09:15:00.467Z,2.8
2022-08-30T09:16:09.081Z,3
2022-08-30T09:17:17.327Z,3
2022-08-30T09:18:25.658Z,3
2022-08-30T09:19:34.274Z,3.5
2022-08-30T09:20:42.554Z,3.5
2022-08-30T09:21:50.867Z,3.5
2022-08-30T09:22:59.401Z,2.9
2022-08-30T09:24:07.728Z,2.9
2022-08-30T09:25:16.047Z,2.9
2022-08-30T09:26:24.590Z,2.9
2022-08-30T09:27:32.905Z,2.9
2022-08-30T09:28:41.249Z,2.9
2022-08-30T09:29:49.784Z,3.3
2022-08-30T09:30:58.181Z,3.3
2022-08-30T09:32:22.811Z,3.3
2022-08-30T09:33:15.002Z,2.8
2022-08-30T09:34:23.329Z,2.8
2022-08-30T09:35:31.656Z,2.8
2022-08-30T09:36:40.183Z,2.6
2022-08-30T09:37:48.499Z,2.6
2022-08-30T09:38:56.819Z,2.6
2022-08-30T09:40:05.401Z,2.7
2022-08-30T09:41:13.668Z,2.7
2022-08-30T09:42:21.995Z,2.7
2022-08-30T09:43:30.516Z,2.8
2022-08-30T09:44:38.836Z,2.8
2022-08-30T09:45:47.257Z,2.8
2022-08-30T09:46:56.094Z,2.7
2022-08-30T09:48:04.051Z,2.7
2022-08-30T09:49:12.397Z,2.7
2022-08-30T09:50:20.953Z,2.4
2022-08-30T09:51:29.328Z,2.4
2022-08-30T09:52:37.639Z,2.4
2022-08-30T09:54:01.181Z,2.8
2022-08-30T09:54:54.546Z,2.8
2022-08-30T09:56:02.880Z,2.8
2022-08-30T09:57:11.793Z,3
2022-08-30T09:58:19.883Z,3
2022-08-30T09:59:28.119Z,3
2022-08-30T10:00:36.684Z,3
2022-08-30T10:01:45.087Z,3
2022-08-30T10:02:53.365Z,3
2022-08-30T10:04:01.920Z,2.8
2022-08-30T10:05:10.266Z,2.8
2022-08-30T10:06:18.612Z,2.8
2022-08-30T10:07:28.860Z,2.8
2022-08-30T10:08:35.492Z,2.8
2022-08-30T10:09:43.847Z,2.8
2022-08-30T10:10:52.396Z,3.2
2022-08-30T10:12:00.728Z,3.2
2022-08-30T10:13:09.138Z,3.2
2022-08-30T10:14:17.627Z,2.8
2022-08-30T10:15:25.982Z,2.8
2022-08-30T10:16:34.327Z,2.8
2022-08-30T10:17:42.866Z,2.9
2022-08-30T10:18:51.202Z,2.9
2022-08-30T10:19:59.549Z,2.9
2022-08-30T10:21:08.102Z,2.9
2022-08-30T10:22:16.443Z,2.9
2022-08-30T10:23:24.785Z,2.9
2022-08-30T10:24:33.773Z,3
2022-08-30T10:25:41.702Z,3
2022-08-30T10:26:50.056Z,3
2022-08-30T10:27:58.592Z,2.7
2022-08-30T10:29:06.944Z,2.7
2022-08-30T10:30:15.269Z,2.7
2022-08-30T10:31:23.878Z,2.5
2022-08-30T10:32:32.165Z,2.5
2022-08-30T10:33:40.498Z,2.5
2022-08-30T10:34:49.067Z,2.5
2022-08-30T10:35:57.400Z,2.5
2022-08-30T10:37:05.748Z,2.5
2022-08-30T10:38:14.305Z,2.7
2022-08-30T10:39:22.644Z,2.7
2022-08-30T10:40:31.045Z,2.7
2022-08-30T10:41:39.535Z,2.5
2022-08-30T10:42:47.876Z,2.5
2022-08-30T10:43:56.215Z,2.5
2022-08-30T10:45:04.775Z,2.9
2022-08-30T10:46:13.133Z,2.9
2022-08-30T10:47:23.551Z,2.9
2022-08-30T10:48:30.024Z,2.8
2022-08-30T10:49:38.691Z,2.8
2022-08-30T10:50:46.748Z,2.8
2022-08-30T10:51:55.296Z,2.5
2022-08-30T10:53:03.639Z,2.5
2022-08-30T10:54:11.985Z,2.5
2022-08-30T10:55:20.535Z,2.7
2022-08-30T10:56:28.882Z,2.7
2022-08-30T10:57:37.227Z,2.7
2022-08-30T10:58:45.772Z,2.7
2022-08-30T10:59:54.104Z,2.7
2022-08-30T11:01:02.463Z,2.7
2022-08-30T11:02:10.987Z,2.6
2022-08-30T11:03:19.331Z,2.6
2022-08-30T11:04:27.671Z,2.6
2022-08-30T11:05:36.245Z,2.7
2022-08-30T11:06:45.003Z,2.7
2022-08-30T11:07:52.907Z,2.7
2022-08-30T11:09:01.455Z,3.2
2022-08-30T11:10:09.816Z,3.2
2022-08-30T11:11:18.152Z,3.2
2022-08-30T11:12:26.682Z,3.3
2022-08-30T11:13:35.028Z,3.3
2022-08-30T11:14:43.390Z,3.3
2022-08-30T11:15:51.924Z,2.7
2022-08-30T11:17:00.263Z,2.7
2022-08-30T11:18:08.600Z,2.7
2022-08-30T11:19:17.147Z,2.7
2022-08-30T11:20:25.500Z,2.7
2022-08-30T11:21:33.836Z,2.7
2022-08-30T11:22:42.390Z,3.2
2022-08-30T11:23:50.735Z,3.2
2022-08-30T11:24:59.085Z,3.2
2022-08-30T11:26:07.629Z,3.3
2022-08-30T11:27:15.965Z,3.3
2022-08-30T11:28:24.434Z,3.3
2022-08-30T11:29:32.862Z,3
2022-08-30T11:30:41.205Z,3
2022-08-30T11:31:49.551Z,3
2022-08-30T11:32:58.090Z,2.8
2022-08-30T11:34:06.442Z,2.8
2022-08-30T11:35:14.781Z,2.8
2022-08-30T11:36:23.335Z,3.3
2022-08-30T11:37:31.681Z,3.3
2022-08-30T11:38:40.017Z,3.3
2022-08-30T11:39:48.964Z,3
2022-08-30T11:40:56.917Z,3
2022-08-30T11:42:05.252Z,3
2022-08-30T11:43:13.801Z,3.1
2022-08-30T11:44:22.149Z,3.1
2022-08-30T11:45:30.492Z,3.1
2022-08-30T11:46:39.041Z,3.2
2022-08-30T11:47:47.370Z,3.2
2022-08-30T11:48:55.927Z,3.2
2022-08-30T11:50:06.449Z,3
2022-08-30T11:51:12.613Z,3
2022-08-30T11:52:26.838Z,3
2022-08-30T11:53:29.500Z,3
2022-08-30T11:54:37.850Z,3
2022-08-30T11:55:46.184Z,3
2022-08-30T11:56:54.744Z,2.7
2022-08-30T11:58:03.088Z,2.7
2022-08-30T11:59:11.428Z,2.7
2022-08-30T12:00:20.006Z,2.9
2022-08-30T12:01:50.445Z,2.9
2022-08-30T12:02:36.852Z,2.9
2022-08-30T12:03:45.367Z,2.9
2022-08-30T12:04:53.763Z,2.9
2022-08-30T12:06:02.432Z,2.9
2022-08-30T12:07:10.973Z,3.1
2022-08-30T12:08:19.313Z,3.1
2022-08-30T12:09:27.653Z,3.1
2022-08-30T12:10:36.223Z,2.9
2022-08-30T12:11:44.565Z,2.9
2022-08-30T12:12:52.896Z,2.9
2022-08-30T12:14:01.451Z,2.9
2022-08-30T12:15:09.789Z,2.9
2022-08-30T12:16:18.168Z,2.9
2022-08-30T12:17:26.683Z,4.7
2022-08-30T12:18:35.015Z,4.7
2022-08-30T12:19:46.612Z,4.7
2022-08-30T12:20:51.918Z,2.8
2022-08-30T12:22:00.608Z,2.8
2022-08-30T12:23:08.960Z,2.8
2022-08-30T12:24:17.515Z,2.9
2022-08-30T12:25:25.846Z,2.9
2022-08-30T12:26:34.189Z,2.9
2022-08-30T12:27:42.745Z,3.1
2022-08-30T12:28:51.093Z,3.1
2022-08-30T12:29:59.473Z,3.1
2022-08-30T12:31:07.999Z,2.9
2022-08-30T12:32:16.453Z,2.9
2022-08-30T12:33:28.908Z,2.9
2022-08-30T12:34:33.255Z,2.5
2022-08-30T12:35:41.587Z,2.5
2022-08-30T12:36:49.929Z,2.5
2022-08-30T12:37:58.481Z,2.7
2022-08-30T12:39:06.817Z,2.7
2022-08-30T12:40:15.271Z,2.7
2022-08-30T12:41:23.717Z,2.4
2022-08-30T12:42:32.058Z,2.4
2022-08-30T12:43:41.435Z,2.4
2022-08-30T12:44:48.971Z,3
2022-08-30T12:45:57.329Z,3
2022-08-30T12:47:05.634Z,3
2022-08-30T12:48:14.208Z,2.4
2022-08-30T12:49:22.544Z,2.4
2022-08-30T12:50:30.883Z,2.4
2022-08-30T12:51:39.427Z,2.8
2022-08-30T12:52:47.760Z,2.8
2022-08-30T12:53:56.123Z,2.8
2022-08-30T12:55:04.676Z,2.9
2022-08-30T12:56:13.010Z,2.9
2022-08-30T12:57:34.794Z,2.9
2022-08-30T12:58:29.900Z,2.9
2022-08-30T12:59:38.242Z,2.9
2022-08-30T13:00:46.722Z,2.9
2022-08-30T13:01:56.160Z,2.8
2022-08-30T13:03:03.471Z,2.8
2022-08-30T13:04:11.811Z,2.8
2022-08-30T13:05:20.361Z,3
2022-08-30T13:06:28.707Z,3
2022-08-30T13:07:37.049Z,3
2022-08-30T13:08:45.619Z,2.3
2022-08-30T13:09:53.942Z,2.3
2022-08-30T13:11:05.947Z,2.3
2022-08-30T13:12:10.830Z,2.9
2022-08-30T13:13:19.180Z,2.9
2022-08-30T13:14:27.542Z,2.9
2022-08-30T13:15:36.100Z,2.8
2022-08-30T13:16:45.377Z,2.8
2022-08-30T13:17:52.794Z,2.8
2022-08-30T13:19:01.325Z,2.7
2022-08-30T13:20:09.671Z,2.7
2022-08-30T13:21:18.020Z,2.7
2022-08-30T13:22:26.998Z,2.8
2022-08-30T13:23:34.909Z,2.8
2022-08-30T13:24:43.239Z,2.8
2022-08-30T13:25:51.801Z,3.1
2022-08-30T13:27:00.208Z,3.1
2022-08-30T13:28:08.480Z,3.1
2022-08-30T13:29:17.058Z,2.9
2022-08-30T13:30:25.388Z,2.9
2022-08-30T13:31:33.766Z,2.9
2022-08-30T13:32:42.299Z,2.3
2022-08-30T13:33:50.634Z,2.3
2022-08-30T13:34:58.981Z,2.3
2022-08-30T13:36:07.523Z,2.8
2022-08-30T13:38:24.289Z,2.8
2022-08-30T13:39:32.834Z,2.7
2022-08-30T13:40:41.202Z,2.7
2022-08-30T13:41:49.538Z,2.7
2022-08-30T13:42:58.612Z,2.6
2022-08-30T13:44:11.581Z,2.6
2022-08-30T13:46:23.343Z,3
2022-08-30T13:47:32.384Z,3
2022-08-30T13:48:40.012Z,3
2022-08-30T13:49:48.563Z,2.8
2022-08-30T13:50:56.893Z,2.8
2022-08-30T13:52:19.624Z,2.8
2022-08-30T13:53:13.820Z,2.9
2022-08-30T13:54:22.123Z,2.9
2022-08-30T13:55:30.460Z,2.9
2022-08-30T13:56:39.005Z,2.9
2022-08-30T13:57:55.317Z,2.9
2022-08-30T13:58:55.692Z,2.9
2022-08-30T14:00:04.251Z,3
2022-08-30T14:01:12.662Z,3
2022-08-30T14:02:20.960Z,3
2022-08-30T14:03:29.565Z,3.1
2022-08-30T14:04:37.921Z,3.1
2022-08-30T14:05:52.849Z,3.1
2022-08-30T14:08:03.110Z,3.2
2022-08-30T14:09:11.453Z,3.2
2022-08-30T14:10:39.518Z,2.9
2022-08-30T14:11:28.353Z,2.9
2022-08-30T14:14:57.569Z,3
2022-08-30T14:17:10.540Z,3.2
2022-08-30T14:18:19.110Z,3.2
2022-08-30T14:19:27.182Z,3.2
2022-08-30T14:20:38.516Z,2.9
2022-08-30T14:21:44.458Z,2.9
2022-08-30T14:22:52.401Z,2.9
2022-08-30T14:24:00.964Z,3.1
2022-08-30T14:25:09.315Z,3.1
2022-08-30T14:26:17.645Z,3.1
2022-08-30T14:27:26.822Z,2.9
2022-08-30T14:28:34.546Z,2.9
2022-08-30T14:29:42.888Z,2.9
2022-08-30T15:03:37.223Z,0
2022-08-30T15:04:45.528Z,0
2022-08-30T15:05:53.850Z,0
2022-08-30T15:07:02.382Z,3.1
2022-08-30T15:08:10.725Z,3.1
2022-08-30T15:09:19.065Z,3.1
2022-08-30T15:10:27.609Z,3
2022-08-30T15:11:35.947Z,3
2022-08-30T15:12:44.274Z,3
2022-08-30T15:13:53.151Z,2.9
2022-08-30T15:15:01.179Z,2.9
2022-08-30T15:16:09.552Z,2.9
2022-08-30T15:17:18.081Z,3.3
2022-08-30T15:18:26.432Z,3.3
2022-08-30T15:19:34.772Z,3.3
2022-08-30T15:20:43.326Z,3.6
2022-08-30T15:21:51.667Z,3.6
2022-08-30T15:23:00.004Z,3.6
2022-08-30T15:24:08.567Z,2.9
2022-08-30T15:25:16.906Z,2.9
2022-08-30T15:26:25.258Z,2.9
2022-08-30T15:27:33.790Z,3.3
2022-08-30T15:28:42.152Z,3.3
2022-08-30T15:29:50.485Z,3.3
2022-08-30T15:30:59.033Z,2.9
2022-08-30T15:32:07.412Z,2.9
2022-08-30T15:33:15.706Z,2.9
2022-08-30T15:34:26.156Z,2.8
2022-08-30T15:35:32.599Z,2.8
2022-08-30T15:36:40.931Z,2.8
2022-08-30T15:37:49.484Z,3.2
2022-08-30T15:38:57.839Z,3.2
2022-08-30T15:40:06.328Z,3.2
2022-08-30T15:41:14.793Z,3
2022-08-30T15:42:23.128Z,3
2022-08-30T15:43:31.482Z,3
2022-08-30T15:44:40.015Z,3.2
2022-08-30T15:45:48.356Z,3.2
2022-08-30T15:46:56.781Z,3.2
2022-08-30T15:48:05.285Z,2.8
2022-08-30T15:49:13.630Z,2.8
2022-08-30T15:50:21.964Z,2.8
2022-08-30T15:51:30.747Z,3.2
2022-08-30T15:52:38.866Z,3.2
2022-08-30T15:53:47.215Z,3.2
2022-08-30T15:54:55.767Z,2.8
2022-08-30T15:56:04.112Z,2.8
2022-08-30T15:57:12.447Z,2.8
2022-08-30T15:58:21.011Z,2.8
2022-08-30T15:59:29.353Z,2.8
2022-08-30T16:00:40.547Z,2.8
2022-08-30T16:01:47.438Z,3
2022-08-30T16:02:54.582Z,3
2022-08-30T16:04:02.927Z,3
2022-08-30T16:05:11.487Z,2.9
2022-08-30T16:06:19.815Z,2.9
2022-08-30T16:07:28.145Z,2.9
2022-08-30T16:08:36.709Z,2.8
2022-08-30T16:09:45.046Z,2.8
2022-08-30T16:10:53.388Z,2.8
2022-08-30T16:12:01.956Z,2.9
2022-08-30T16:13:10.375Z,2.9
2022-08-30T16:14:18.656Z,2.9
2022-08-30T16:15:27.198Z,3.1
2022-08-30T16:16:35.607Z,3.1
2022-08-30T16:17:43.895Z,3.1
2022-08-30T16:18:54.028Z,3
2022-08-30T16:20:00.809Z,3
2022-08-30T16:21:09.143Z,3
2022-08-30T16:22:22.042Z,3.2
2022-08-30T16:23:26.042Z,3.2
2022-08-30T16:24:34.381Z,3.2
2022-08-30T16:25:42.925Z,3
2022-08-30T16:26:51.266Z,3
2022-08-30T16:27:59.613Z,3
2022-08-30T16:29:08.797Z,3.7
2022-08-30T16:30:16.494Z,3.7